sensor_id;sensor_type;location;lat;lon;timestamp;P1;durP1;ratioP1;P2;durP2;ratioP2
73642;SDS011;61938;48.652;9.292;2023-08-30T00:01:32;26.20;;;16.63;;
73642;SDS011;61938;48.652;9.292;2023-08-30T00:03:57;26.73;;;15.30;;
73642;SDS011;61938;48.652;9.292;2023-08-30T00:06:23;22.83;;;14.80;;
73642;SDS011;61938;48.652;9.292;2023-08-30T00:08:48;20.15;;;14.95;;
73642;SDS011;61938;48.652;9.292;2023-08-30T00:11:14;19.08;;;14.35;;
73642;SDS011;61938;48.652;9.292;2023-08-30T00:13:40;18.30;;;14.63;;
73642;SDS011;61938;48.652;9.292;2023-08-30T00:16:06;21.58;;;13.80;;
73642;SDS011;61938;48.652;9.292;2023-08-30T00:18:31;27.42;;;14.82;;
73642;SDS011;61938;48.652;9.292;2023-08-30T00:20:57;18.80;;;14.43;;
73642;SDS011;61938;48.652;9.292;2023-08-30T00:23:23;20.98;;;14.82;;
73642;SDS011;61938;48.652;9.292;2023-08-30T00:25:48;24.45;;;15.70;;
73642;SDS011;61938;48.652;9.292;2023-08-30T00:28:14;21.63;;;15.02;;
73642;SDS011;61938;48.652;9.292;2023-08-30T00:30:39;21.50;;;14.57;;
73642;SDS011;61938;48.652;9.292;2023-08-30T00:33:05;21.25;;;15.27;;
73642;SDS011;61938;48.652;9.292;2023-08-30T00:35:31;21.92;;;15.73;;
73642;SDS011;61938;48.652;9.292;2023-08-30T00:37:56;23.08;;;14.82;;
73642;SDS011;61938;48.652;9.292;2023-08-30T00:40:25;20.98;;;14.68;;
73642;SDS011;61938;48.652;9.292;2023-08-30T00:42:51;24.70;;;16.02;;
73642;SDS011;61938;48.652;9.292;2023-08-30T00:45:17;41.83;;;17.00;;
73642;SDS011;61938;48.652;9.292;2023-08-30T00:47:43;22.48;;;16.50;;
73642;SDS011;61938;48.652;9.292;2023-08-30T00:50:08;22.73;;;15.73;;
73642;SDS011;61938;48.652;9.292;2023-08-30T00:52:34;23.85;;;15.73;;
73642;SDS011;61938;48.652;9.292;2023-08-30T00:55:00;21.20;;;15.40;;
73642;SDS011;61938;48.652;9.292;2023-08-30T00:57:26;21.73;;;15.30;;
73642;SDS011;61938;48.652;9.292;2023-08-30T00:59:51;21.38;;;15.20;;
73642;SDS011;61938;48.652;9.292;2023-08-30T01:02:19;21.45;;;15.27;;
73642;SDS011;61938;48.652;9.292;2023-08-30T01:04:45;21.27;;;14.73;;
73642;SDS011;61938;48.652;9.292;2023-08-30T01:07:10;22.65;;;15.38;;
73642;SDS011;61938;48.652;9.292;2023-08-30T01:09:36;22.83;;;15.20;;
73642;SDS011;61938;48.652;9.292;2023-08-30T01:14:51;22.88;;;15.30;;
73642;SDS011;61938;48.652;9.292;2023-08-30T01:17:21;24.05;;;15.38;;
73642;SDS011;61938;48.652;9.292;2023-08-30T01:19:57;23.33;;;16.52;;
73642;SDS011;61938;48.652;9.292;2023-08-30T01:27:20;23.90;;;15.10;;
73642;SDS011;61938;48.652;9.292;2023-08-30T01:29:46;18.17;;;13.88;;
73642;SDS011;61938;48.652;9.292;2023-08-30T01:32:12;29.27;;;16.60;;
73642;SDS011;61938;48.652;9.292;2023-08-30T01:34:38;22.27;;;14.75;;
73642;SDS011;61938;48.652;9.292;2023-08-30T01:37:06;20.95;;;15.35;;
73642;SDS011;61938;48.652;9.292;2023-08-30T01:39:34;25.05;;;15.35;;
73642;SDS011;61938;48.652;9.292;2023-08-30T01:42:01;21.10;;;15.55;;
73642;SDS011;61938;48.652;9.292;2023-08-30T01:44:27;30.55;;;16.55;;
73642;SDS011;61938;48.652;9.292;2023-08-30T01:46:54;27.58;;;17.10;;
73642;SDS011;61938;48.652;9.292;2023-08-30T01:49:21;23.75;;;15.80;;
73642;SDS011;61938;48.652;9.292;2023-08-30T01:51:48;25.08;;;16.38;;
73642;SDS011;61938;48.652;9.292;2023-08-30T01:54:16;27.50;;;17.33;;
73642;SDS011;61938;48.652;9.292;2023-08-30T01:56:43;24.77;;;15.90;;
73642;SDS011;61938;48.652;9.292;2023-08-30T01:59:10;24.90;;;16.13;;
73642;SDS011;61938;48.652;9.292;2023-08-30T02:01:36;23.73;;;16.02;;
73642;SDS011;61938;48.652;9.292;2023-08-30T02:04:01;24.48;;;16.50;;
73642;SDS011;61938;48.652;9.292;2023-08-30T02:06:31;28.83;;;17.35;;
73642;SDS011;61938;48.652;9.292;2023-08-30T02:09:14;26.92;;;16.23;;
73642;SDS011;61938;48.652;9.292;2023-08-30T02:11:46;22.38;;;15.68;;
73642;SDS011;61938;48.652;9.292;2023-08-30T02:14:14;21.38;;;14.38;;
73642;SDS011;61938;48.652;9.292;2023-08-30T02:16:42;24.35;;;15.50;;
73642;SDS011;61938;48.652;9.292;2023-08-30T02:19:10;20.80;;;15.27;;
73642;SDS011;61938;48.652;9.292;2023-08-30T02:21:37;23.77;;;15.88;;
73642;SDS011;61938;48.652;9.292;2023-08-30T02:24:04;24.98;;;15.48;;
73642;SDS011;61938;48.652;9.292;2023-08-30T02:26:30;21.95;;;15.10;;
73642;SDS011;61938;48.652;9.292;2023-08-30T02:28:55;24.85;;;14.07;;
73642;SDS011;61938;48.652;9.292;2023-08-30T02:31:21;20.27;;;14.45;;
73642;SDS011;61938;48.652;9.292;2023-08-30T02:33:46;20.08;;;14.02;;
73642;SDS011;61938;48.652;9.292;2023-08-30T02:36:12;22.27;;;14.10;;
73642;SDS011;61938;48.652;9.292;2023-08-30T02:38:37;25.38;;;14.10;;
73642;SDS011;61938;48.652;9.292;2023-08-30T02:41:03;19.00;;;14.73;;
73642;SDS011;61938;48.652;9.292;2023-08-30T02:43:28;24.98;;;15.07;;
73642;SDS011;61938;48.652;9.292;2023-08-30T02:45:54;22.20;;;16.08;;
73642;SDS011;61938;48.652;9.292;2023-08-30T02:48:20;21.55;;;15.77;;
73642;SDS011;61938;48.652;9.292;2023-08-30T02:50:45;20.95;;;15.27;;
73642;SDS011;61938;48.652;9.292;2023-08-30T02:53:11;22.08;;;15.23;;
73642;SDS011;61938;48.652;9.292;2023-08-30T02:55:36;20.80;;;15.00;;
73642;SDS011;61938;48.652;9.292;2023-08-30T02:58:02;27.73;;;15.98;;
73642;SDS011;61938;48.652;9.292;2023-08-30T03:00:28;25.63;;;16.08;;
73642;SDS011;61938;48.652;9.292;2023-08-30T03:02:53;22.17;;;15.40;;
73642;SDS011;61938;48.652;9.292;2023-08-30T03:05:18;29.02;;;15.80;;
73642;SDS011;61938;48.652;9.292;2023-08-30T03:07:44;21.02;;;15.38;;
73642;SDS011;61938;48.652;9.292;2023-08-30T03:10:11;23.80;;;15.98;;
73642;SDS011;61938;48.652;9.292;2023-08-30T03:12:37;22.85;;;16.38;;
73642;SDS011;61938;48.652;9.292;2023-08-30T03:15:03;27.27;;;17.67;;
73642;SDS011;61938;48.652;9.292;2023-08-30T03:17:29;22.58;;;15.73;;
73642;SDS011;61938;48.652;9.292;2023-08-30T03:19:55;26.50;;;16.85;;
73642;SDS011;61938;48.652;9.292;2023-08-30T03:22:21;26.33;;;16.08;;
73642;SDS011;61938;48.652;9.292;2023-08-30T03:24:46;27.73;;;16.55;;
73642;SDS011;61938;48.652;9.292;2023-08-30T03:27:12;26.20;;;17.30;;
73642;SDS011;61938;48.652;9.292;2023-08-30T03:29:37;22.95;;;17.08;;
73642;SDS011;61938;48.652;9.292;2023-08-30T03:32:03;27.90;;;16.48;;
73642;SDS011;61938;48.652;9.292;2023-08-30T03:34:29;24.00;;;16.52;;
73642;SDS011;61938;48.652;9.292;2023-08-30T03:36:55;22.02;;;15.52;;
73642;SDS011;61938;48.652;9.292;2023-08-30T03:39:20;23.95;;;15.95;;
73642;SDS011;61938;48.652;9.292;2023-08-30T03:41:46;20.90;;;14.52;;
73642;SDS011;61938;48.652;9.292;2023-08-30T03:44:12;21.92;;;15.90;;
73642;SDS011;61938;48.652;9.292;2023-08-30T03:46:37;30.15;;;15.70;;
73642;SDS011;61938;48.652;9.292;2023-08-30T03:49:03;20.80;;;14.57;;
73642;SDS011;61938;48.652;9.292;2023-08-30T03:51:29;23.05;;;15.20;;
73642;SDS011;61938;48.652;9.292;2023-08-30T03:53:54;23.13;;;15.32;;
73642;SDS011;61938;48.652;9.292;2023-08-30T03:56:23;21.88;;;15.15;;
73642;SDS011;61938;48.652;9.292;2023-08-30T03:58:48;19.98;;;15.52;;
73642;SDS011;61938;48.652;9.292;2023-08-30T04:01:14;25.70;;;15.57;;
73642;SDS011;61938;48.652;9.292;2023-08-30T04:03:39;24.20;;;16.40;;
73642;SDS011;61938;48.652;9.292;2023-08-30T04:06:05;20.40;;;14.98;;
73642;SDS011;61938;48.652;9.292;2023-08-30T04:08:30;22.50;;;14.25;;
73642;SDS011;61938;48.652;9.292;2023-08-30T04:10:56;26.38;;;15.75;;
73642;SDS011;61938;48.652;9.292;2023-08-30T04:13:22;24.65;;;16.65;;
73642;SDS011;61938;48.652;9.292;2023-08-30T04:15:48;25.98;;;17.65;;
73642;SDS011;61938;48.652;9.292;2023-08-30T04:18:13;24.70;;;16.90;;
73642;SDS011;61938;48.652;9.292;2023-08-30T04:20:42;23.08;;;16.55;;
73642;SDS011;61938;48.652;9.292;2023-08-30T04:23:11;25.52;;;17.05;;
73642;SDS011;61938;48.652;9.292;2023-08-30T04:25:37;28.98;;;17.00;;
73642;SDS011;61938;48.652;9.292;2023-08-30T04:28:03;25.02;;;15.80;;
73642;SDS011;61938;48.652;9.292;2023-08-30T04:30:29;25.77;;;16.90;;
73642;SDS011;61938;48.652;9.292;2023-08-30T04:32:55;22.52;;;15.85;;
73642;SDS011;61938;48.652;9.292;2023-08-30T04:35:20;25.65;;;17.55;;
73642;SDS011;61938;48.652;9.292;2023-08-30T04:37:45;27.38;;;16.52;;
73642;SDS011;61938;48.652;9.292;2023-08-30T04:40:11;27.50;;;16.88;;
73642;SDS011;61938;48.652;9.292;2023-08-30T04:42:37;27.55;;;17.02;;
73642;SDS011;61938;48.652;9.292;2023-08-30T04:45:04;25.65;;;16.52;;
73642;SDS011;61938;48.652;9.292;2023-08-30T04:47:31;27.63;;;17.13;;
73642;SDS011;61938;48.652;9.292;2023-08-30T04:49:57;28.20;;;17.80;;
73642;SDS011;61938;48.652;9.292;2023-08-30T04:52:23;31.10;;;18.95;;
73642;SDS011;61938;48.652;9.292;2023-08-30T04:54:48;26.77;;;17.65;;
73642;SDS011;61938;48.652;9.292;2023-08-30T04:57:14;25.40;;;17.40;;
73642;SDS011;61938;48.652;9.292;2023-08-30T04:59:41;26.70;;;17.25;;
73642;SDS011;61938;48.652;9.292;2023-08-30T05:02:07;25.48;;;17.48;;
73642;SDS011;61938;48.652;9.292;2023-08-30T05:04:33;29.50;;;18.52;;
73642;SDS011;61938;48.652;9.292;2023-08-30T05:06:58;26.65;;;17.67;;
73642;SDS011;61938;48.652;9.292;2023-08-30T05:09:24;26.70;;;16.75;;
73642;SDS011;61938;48.652;9.292;2023-08-30T05:11:53;27.67;;;16.70;;
73642;SDS011;61938;48.652;9.292;2023-08-30T05:14:19;27.55;;;17.58;;
73642;SDS011;61938;48.652;9.292;2023-08-30T05:16:48;28.67;;;17.55;;
73642;SDS011;61938;48.652;9.292;2023-08-30T05:19:14;25.52;;;17.38;;
73642;SDS011;61938;48.652;9.292;2023-08-30T05:21:41;26.00;;;17.60;;
73642;SDS011;61938;48.652;9.292;2023-08-30T05:24:07;23.27;;;15.80;;
73642;SDS011;61938;48.652;9.292;2023-08-30T05:26:33;23.80;;;15.05;;
73642;SDS011;61938;48.652;9.292;2023-08-30T05:28:59;24.65;;;16.55;;
73642;SDS011;61938;48.652;9.292;2023-08-30T05:31:24;22.00;;;15.55;;
73642;SDS011;61938;48.652;9.292;2023-08-30T05:33:50;22.95;;;15.85;;
73642;SDS011;61938;48.652;9.292;2023-08-30T05:36:16;22.17;;;14.77;;
73642;SDS011;61938;48.652;9.292;2023-08-30T05:38:42;23.52;;;15.40;;
73642;SDS011;61938;48.652;9.292;2023-08-30T05:43:55;25.27;;;14.70;;
73642;SDS011;61938;48.652;9.292;2023-08-30T05:46:21;20.88;;;14.90;;
73642;SDS011;61938;48.652;9.292;2023-08-30T05:48:46;25.73;;;15.77;;
73642;SDS011;61938;48.652;9.292;2023-08-30T05:51:12;25.50;;;15.60;;
73642;SDS011;61938;48.652;9.292;2023-08-30T05:53:37;24.63;;;16.02;;
73642;SDS011;61938;48.652;9.292;2023-08-30T05:56:03;24.88;;;15.10;;
73642;SDS011;61938;48.652;9.292;2023-08-30T05:58:29;22.35;;;15.45;;
73642;SDS011;61938;48.652;9.292;2023-08-30T06:00:55;26.17;;;14.40;;
73642;SDS011;61938;48.652;9.292;2023-08-30T06:03:21;29.40;;;15.32;;
73642;SDS011;61938;48.652;9.292;2023-08-30T06:05:47;22.75;;;15.32;;
73642;SDS011;61938;48.652;9.292;2023-08-30T06:08:13;29.75;;;15.20;;
73642;SDS011;61938;48.652;9.292;2023-08-30T06:10:39;23.98;;;15.40;;
73642;SDS011;61938;48.652;9.292;2023-08-30T06:13:05;24.05;;;15.43;;
73642;SDS011;61938;48.652;9.292;2023-08-30T06:15:30;21.75;;;14.63;;
73642;SDS011;61938;48.652;9.292;2023-08-30T06:17:56;22.45;;;14.35;;
73642;SDS011;61938;48.652;9.292;2023-08-30T06:20:21;27.13;;;15.77;;
73642;SDS011;61938;48.652;9.292;2023-08-30T06:22:47;24.98;;;15.48;;
73642;SDS011;61938;48.652;9.292;2023-08-30T06:25:12;21.63;;;14.88;;
73642;SDS011;61938;48.652;9.292;2023-08-30T06:27:40;19.83;;;13.77;;
73642;SDS011;61938;48.652;9.292;2023-08-30T06:30:07;20.60;;;13.60;;
73642;SDS011;61938;48.652;9.292;2023-08-30T06:32:33;22.15;;;13.27;;
73642;SDS011;61938;48.652;9.292;2023-08-30T06:34:59;19.48;;;14.75;;
73642;SDS011;61938;48.652;9.292;2023-08-30T06:37:24;22.15;;;13.95;;
73642;SDS011;61938;48.652;9.292;2023-08-30T06:39:50;21.63;;;12.82;;
73642;SDS011;61938;48.652;9.292;2023-08-30T06:42:15;20.42;;;14.82;;
73642;SDS011;61938;48.652;9.292;2023-08-30T06:44:41;19.83;;;13.70;;
73642;SDS011;61938;48.652;9.292;2023-08-30T06:47:06;20.30;;;13.48;;
73642;SDS011;61938;48.652;9.292;2023-08-30T06:49:32;20.42;;;14.35;;
73642;SDS011;61938;48.652;9.292;2023-08-30T06:51:58;19.20;;;14.15;;
73642;SDS011;61938;48.652;9.292;2023-08-30T06:54:28;19.65;;;13.60;;
73642;SDS011;61938;48.652;9.292;2023-08-30T06:56:58;23.75;;;14.55;;
73642;SDS011;61938;48.652;9.292;2023-08-30T06:59:25;20.50;;;13.57;;
73642;SDS011;61938;48.652;9.292;2023-08-30T07:01:51;21.95;;;14.25;;
73642;SDS011;61938;48.652;9.292;2023-08-30T07:04:16;25.08;;;15.00;;
73642;SDS011;61938;48.652;9.292;2023-08-30T07:06:42;20.10;;;13.77;;
73642;SDS011;61938;48.652;9.292;2023-08-30T07:09:07;22.23;;;15.00;;
73642;SDS011;61938;48.652;9.292;2023-08-30T07:11:33;20.77;;;14.25;;
73642;SDS011;61938;48.652;9.292;2023-08-30T07:13:59;20.50;;;14.05;;
73642;SDS011;61938;48.652;9.292;2023-08-30T07:16:25;19.55;;;12.20;;
73642;SDS011;61938;48.652;9.292;2023-08-30T07:18:51;18.48;;;12.32;;
73642;SDS011;61938;48.652;9.292;2023-08-30T07:21:16;17.77;;;12.77;;
73642;SDS011;61938;48.652;9.292;2023-08-30T07:23:42;19.33;;;13.70;;
73642;SDS011;61938;48.652;9.292;2023-08-30T07:26:08;17.30;;;12.60;;
73642;SDS011;61938;48.652;9.292;2023-08-30T07:28:34;23.40;;;12.65;;
73642;SDS011;61938;48.652;9.292;2023-08-30T07:31:03;19.90;;;12.23;;
73642;SDS011;61938;48.652;9.292;2023-08-30T07:33:29;16.58;;;11.98;;
73642;SDS011;61938;48.652;9.292;2023-08-30T07:35:55;14.57;;;11.40;;
73642;SDS011;61938;48.652;9.292;2023-08-30T07:38:20;18.42;;;12.32;;
73642;SDS011;61938;48.652;9.292;2023-08-30T07:40:46;15.63;;;11.55;;
73642;SDS011;61938;48.652;9.292;2023-08-30T07:43:11;17.02;;;11.55;;
73642;SDS011;61938;48.652;9.292;2023-08-30T07:45:37;16.00;;;11.20;;
73642;SDS011;61938;48.652;9.292;2023-08-30T07:48:02;14.73;;;11.13;;
73642;SDS011;61938;48.652;9.292;2023-08-30T07:50:28;16.02;;;10.82;;
73642;SDS011;61938;48.652;9.292;2023-08-30T07:52:53;13.70;;;10.73;;
73642;SDS011;61938;48.652;9.292;2023-08-30T07:55:19;14.02;;;10.77;;
73642;SDS011;61938;48.652;9.292;2023-08-30T07:57:44;18.98;;;11.30;;
73642;SDS011;61938;48.652;9.292;2023-08-30T08:00:11;15.50;;;11.13;;
73642;SDS011;61938;48.652;9.292;2023-08-30T08:02:37;15.02;;;10.93;;
73642;SDS011;61938;48.652;9.292;2023-08-30T08:05:02;16.38;;;10.90;;
73642;SDS011;61938;48.652;9.292;2023-08-30T08:07:28;13.68;;;10.25;;
73642;SDS011;61938;48.652;9.292;2023-08-30T08:09:54;12.75;;;10.57;;
73642;SDS011;61938;48.652;9.292;2023-08-30T08:12:20;14.32;;;10.48;;
73642;SDS011;61938;48.652;9.292;2023-08-30T08:14:46;14.80;;;10.55;;
73642;SDS011;61938;48.652;9.292;2023-08-30T08:17:11;12.85;;;9.50;;
73642;SDS011;61938;48.652;9.292;2023-08-30T08:19:37;16.25;;;10.90;;
73642;SDS011;61938;48.652;9.292;2023-08-30T08:22:04;14.82;;;9.80;;
73642;SDS011;61938;48.652;9.292;2023-08-30T08:24:30;13.02;;;10.15;;
73642;SDS011;61938;48.652;9.292;2023-08-30T08:26:56;13.38;;;10.45;;
73642;SDS011;61938;48.652;9.292;2023-08-30T08:29:21;13.98;;;9.82;;
73642;SDS011;61938;48.652;9.292;2023-08-30T08:31:47;13.10;;;9.13;;
73642;SDS011;61938;48.652;9.292;2023-08-30T08:34:13;13.05;;;9.63;;
73642;SDS011;61938;48.652;9.292;2023-08-30T08:36:39;11.98;;;9.07;;
73642;SDS011;61938;48.652;9.292;2023-08-30T08:39:06;18.20;;;10.00;;
73642;SDS011;61938;48.652;9.292;2023-08-30T08:41:42;13.18;;;8.88;;
73642;SDS011;61938;48.652;9.292;2023-08-30T08:44:09;13.75;;;8.60;;
73642;SDS011;61938;48.652;9.292;2023-08-30T08:46:36;10.43;;;8.60;;
73642;SDS011;61938;48.652;9.292;2023-08-30T08:49:15;12.07;;;8.38;;
73642;SDS011;61938;48.652;9.292;2023-08-30T08:51:42;9.70;;;7.68;;
73642;SDS011;61938;48.652;9.292;2023-08-30T08:54:09;9.75;;;7.72;;
73642;SDS011;61938;48.652;9.292;2023-08-30T08:56:35;12.50;;;8.07;;
73642;SDS011;61938;48.652;9.292;2023-08-30T08:59:02;10.68;;;8.07;;
73642;SDS011;61938;48.652;9.292;2023-08-30T09:01:28;13.30;;;8.05;;
73642;SDS011;61938;48.652;9.292;2023-08-30T09:03:54;14.75;;;7.90;;
73642;SDS011;61938;48.652;9.292;2023-08-30T09:06:20;10.13;;;7.85;;
73642;SDS011;61938;48.652;9.292;2023-08-30T09:08:48;12.50;;;7.53;;
73642;SDS011;61938;48.652;9.292;2023-08-30T09:11:13;10.35;;;6.90;;
73642;SDS011;61938;48.652;9.292;2023-08-30T09:13:39;12.60;;;7.50;;
73642;SDS011;61938;48.652;9.292;2023-08-30T09:16:14;8.63;;;6.88;;
73642;SDS011;61938;48.652;9.292;2023-08-30T09:18:40;9.00;;;6.70;;
73642;SDS011;61938;48.652;9.292;2023-08-30T09:21:10;8.68;;;7.18;;
73642;SDS011;61938;48.652;9.292;2023-08-30T09:23:36;7.15;;;5.93;;
73642;SDS011;61938;48.652;9.292;2023-08-30T09:26:03;9.52;;;7.07;;
73642;SDS011;61938;48.652;9.292;2023-08-30T09:28:29;10.13;;;5.72;;
73642;SDS011;61938;48.652;9.292;2023-08-30T09:30:57;10.52;;;6.20;;
73642;SDS011;61938;48.652;9.292;2023-08-30T09:33:31;8.52;;;6.20;;
73642;SDS011;61938;48.652;9.292;2023-08-30T09:35:57;10.40;;;6.55;;
73642;SDS011;61938;48.652;9.292;2023-08-30T09:38:24;7.55;;;5.60;;
73642;SDS011;61938;48.652;9.292;2023-08-30T09:40:50;11.88;;;5.85;;
73642;SDS011;61938;48.652;9.292;2023-08-30T09:43:18;9.32;;;5.82;;
73642;SDS011;61938;48.652;9.292;2023-08-30T09:45:44;8.15;;;5.55;;
73642;SDS011;61938;48.652;9.292;2023-08-30T09:48:10;7.13;;;5.50;;
73642;SDS011;61938;48.652;9.292;2023-08-30T09:50:35;7.25;;;5.22;;
73642;SDS011;61938;48.652;9.292;2023-08-30T09:53:08;7.72;;;5.53;;
73642;SDS011;61938;48.652;9.292;2023-08-30T09:55:37;10.23;;;5.25;;
73642;SDS011;61938;48.652;9.292;2023-08-30T09:58:04;7.57;;;5.68;;
73642;SDS011;61938;48.652;9.292;2023-08-30T10:00:30;11.90;;;6.03;;
73642;SDS011;61938;48.652;9.292;2023-08-30T10:02:58;10.57;;;5.82;;
73642;SDS011;61938;48.652;9.292;2023-08-30T10:05:25;9.05;;;5.35;;
73642;SDS011;61938;48.652;9.292;2023-08-30T10:07:52;7.30;;;5.43;;
73642;SDS011;61938;48.652;9.292;2023-08-30T10:10:18;7.30;;;4.90;;
73642;SDS011;61938;48.652;9.292;2023-08-30T10:12:46;5.95;;;4.82;;
73642;SDS011;61938;48.652;9.292;2023-08-30T10:15:12;7.63;;;5.00;;
73642;SDS011;61938;48.652;9.292;2023-08-30T10:17:38;7.70;;;5.28;;
73642;SDS011;61938;48.652;9.292;2023-08-30T10:20:08;7.30;;;5.30;;
73642;SDS011;61938;48.652;9.292;2023-08-30T10:22:35;7.30;;;5.80;;
73642;SDS011;61938;48.652;9.292;2023-08-30T10:25:12;5.95;;;5.32;;
73642;SDS011;61938;48.652;9.292;2023-08-30T10:27:43;8.85;;;5.43;;
73642;SDS011;61938;48.652;9.292;2023-08-30T10:30:11;7.85;;;5.18;;
73642;SDS011;61938;48.652;9.292;2023-08-30T10:32:41;6.85;;;4.93;;
73642;SDS011;61938;48.652;9.292;2023-08-30T10:35:11;7.57;;;5.30;;
73642;SDS011;61938;48.652;9.292;2023-08-30T10:37:40;11.02;;;5.22;;
73642;SDS011;61938;48.652;9.292;2023-08-30T10:40:06;6.95;;;5.38;;
73642;SDS011;61938;48.652;9.292;2023-08-30T10:42:32;13.13;;;5.55;;
73642;SDS011;61938;48.652;9.292;2023-08-30T10:45:05;7.05;;;5.55;;
73642;SDS011;61938;48.652;9.292;2023-08-30T10:47:32;6.95;;;4.68;;
73642;SDS011;61938;48.652;9.292;2023-08-30T10:50:10;7.57;;;5.32;;
73642;SDS011;61938;48.652;9.292;2023-08-30T10:52:36;7.28;;;5.00;;
73642;SDS011;61938;48.652;9.292;2023-08-30T10:55:09;6.85;;;5.35;;
73642;SDS011;61938;48.652;9.292;2023-08-30T10:57:36;8.60;;;5.80;;
73642;SDS011;61938;48.652;9.292;2023-08-30T11:02:34;6.25;;;4.30;;
73642;SDS011;61938;48.652;9.292;2023-08-30T11:05:01;5.47;;;4.40;;
73642;SDS011;61938;48.652;9.292;2023-08-30T11:07:28;6.95;;;4.35;;
73642;SDS011;61938;48.652;9.292;2023-08-30T11:09:54;4.93;;;3.70;;
73642;SDS011;61938;48.652;9.292;2023-08-30T11:12:20;4.20;;;3.63;;
73642;SDS011;61938;48.652;9.292;2023-08-30T11:14:51;8.52;;;4.20;;
73642;SDS011;61938;48.652;9.292;2023-08-30T11:17:17;6.97;;;3.67;;
73642;SDS011;61938;48.652;9.292;2023-08-30T11:19:43;4.43;;;3.92;;
73642;SDS011;61938;48.652;9.292;2023-08-30T11:22:09;7.80;;;4.50;;
73642;SDS011;61938;48.652;9.292;2023-08-30T11:24:35;7.13;;;4.40;;
73642;SDS011;61938;48.652;9.292;2023-08-30T11:27:00;5.30;;;3.20;;
73642;SDS011;61938;48.652;9.292;2023-08-30T11:29:26;4.60;;;3.38;;
73642;SDS011;61938;48.652;9.292;2023-08-30T11:31:52;5.90;;;3.22;;
73642;SDS011;61938;48.652;9.292;2023-08-30T11:34:21;4.43;;;3.55;;
73642;SDS011;61938;48.652;9.292;2023-08-30T11:36:49;6.55;;;3.55;;
73642;SDS011;61938;48.652;9.292;2023-08-30T11:39:19;3.47;;;2.80;;
73642;SDS011;61938;48.652;9.292;2023-08-30T11:41:44;5.53;;;2.95;;
73642;SDS011;61938;48.652;9.292;2023-08-30T11:44:11;5.03;;;3.20;;
73642;SDS011;61938;48.652;9.292;2023-08-30T11:46:37;5.28;;;3.22;;
73642;SDS011;61938;48.652;9.292;2023-08-30T11:49:02;5.28;;;2.90;;
73642;SDS011;61938;48.652;9.292;2023-08-30T11:51:28;7.63;;;3.10;;
73642;SDS011;61938;48.652;9.292;2023-08-30T11:53:54;5.50;;;3.03;;
73642;SDS011;61938;48.652;9.292;2023-08-30T11:56:21;4.07;;;2.97;;
73642;SDS011;61938;48.652;9.292;2023-08-30T11:58:47;7.28;;;3.33;;
73642;SDS011;61938;48.652;9.292;2023-08-30T12:01:13;4.40;;;3.15;;
73642;SDS011;61938;48.652;9.292;2023-08-30T12:03:39;5.40;;;3.17;;
73642;SDS011;61938;48.652;9.292;2023-08-30T12:06:09;4.00;;;3.10;;
73642;SDS011;61938;48.652;9.292;2023-08-30T12:08:36;4.47;;;3.15;;
73642;SDS011;61938;48.652;9.292;2023-08-30T12:11:01;6.25;;;3.63;;
73642;SDS011;61938;48.652;9.292;2023-08-30T12:13:28;9.43;;;3.50;;
73642;SDS011;61938;48.652;9.292;2023-08-30T12:15:57;6.30;;;3.63;;
73642;SDS011;61938;48.652;9.292;2023-08-30T12:18:31;8.75;;;2.90;;
73642;SDS011;61938;48.652;9.292;2023-08-30T12:21:01;5.20;;;3.08;;
73642;SDS011;61938;48.652;9.292;2023-08-30T12:23:31;4.97;;;3.05;;
73642;SDS011;61938;48.652;9.292;2023-08-30T12:28:26;3.67;;;2.53;;
73642;SDS011;61938;48.652;9.292;2023-08-30T12:30:53;2.67;;;2.10;;
73642;SDS011;61938;48.652;9.292;2023-08-30T12:33:19;4.30;;;2.00;;
73642;SDS011;61938;48.652;9.292;2023-08-30T12:35:45;4.20;;;2.70;;
73642;SDS011;61938;48.652;9.292;2023-08-30T12:38:11;4.28;;;2.10;;
73642;SDS011;61938;48.652;9.292;2023-08-30T12:40:46;6.47;;;2.33;;
73642;SDS011;61938;48.652;9.292;2023-08-30T12:43:15;5.88;;;2.20;;
73642;SDS011;61938;48.652;9.292;2023-08-30T12:45:41;6.75;;;2.28;;
73642;SDS011;61938;48.652;9.292;2023-08-30T12:48:08;3.63;;;1.83;;
73642;SDS011;61938;48.652;9.292;2023-08-30T12:50:35;5.32;;;2.05;;
73642;SDS011;61938;48.652;9.292;2023-08-30T12:53:01;3.25;;;2.35;;
73642;SDS011;61938;48.652;9.292;2023-08-30T12:55:30;3.55;;;2.30;;
73642;SDS011;61938;48.652;9.292;2023-08-30T12:57:57;3.13;;;2.00;;
73642;SDS011;61938;48.652;9.292;2023-08-30T13:00:22;3.63;;;2.40;;
73642;SDS011;61938;48.652;9.292;2023-08-30T13:02:49;2.90;;;1.67;;
73642;SDS011;61938;48.652;9.292;2023-08-30T13:05:14;3.40;;;2.25;;
73642;SDS011;61938;48.652;9.292;2023-08-30T13:07:40;5.03;;;2.08;;
73642;SDS011;61938;48.652;9.292;2023-08-30T13:10:07;3.88;;;2.13;;
73642;SDS011;61938;48.652;9.292;2023-08-30T13:12:32;3.45;;;2.20;;
73642;SDS011;61938;48.652;9.292;2023-08-30T13:14:58;2.28;;;1.60;;
73642;SDS011;61938;48.652;9.292;2023-08-30T13:17:24;3.42;;;1.90;;
73642;SDS011;61938;48.652;9.292;2023-08-30T13:19:49;2.58;;;1.60;;
73642;SDS011;61938;48.652;9.292;2023-08-30T13:22:15;3.15;;;1.80;;
73642;SDS011;61938;48.652;9.292;2023-08-30T13:24:41;2.67;;;1.70;;
73642;SDS011;61938;48.652;9.292;2023-08-30T13:27:07;2.50;;;1.50;;
73642;SDS011;61938;48.652;9.292;2023-08-30T13:29:32;2.30;;;1.65;;
73642;SDS011;61938;48.652;9.292;2023-08-30T13:31:58;2.38;;;1.67;;
73642;SDS011;61938;48.652;9.292;2023-08-30T13:34:23;3.45;;;1.70;;
73642;SDS011;61938;48.652;9.292;2023-08-30T13:36:49;3.33;;;1.58;;
73642;SDS011;61938;48.652;9.292;2023-08-30T13:39:15;2.25;;;1.50;;
73642;SDS011;61938;48.652;9.292;2023-08-30T13:41:40;8.15;;;2.13;;
73642;SDS011;61938;48.652;9.292;2023-08-30T13:44:06;3.60;;;2.00;;
73642;SDS011;61938;48.652;9.292;2023-08-30T13:46:32;6.68;;;2.20;;
73642;SDS011;61938;48.652;9.292;2023-08-30T13:48:58;2.38;;;1.70;;
73642;SDS011;61938;48.652;9.292;2023-08-30T13:51:24;2.88;;;1.75;;
73642;SDS011;61938;48.652;9.292;2023-08-30T13:53:51;5.35;;;2.00;;
73642;SDS011;61938;48.652;9.292;2023-08-30T13:56:17;3.83;;;2.08;;
73642;SDS011;61938;48.652;9.292;2023-08-30T13:58:44;5.72;;;2.15;;
73642;SDS011;61938;48.652;9.292;2023-08-30T14:01:10;5.43;;;3.30;;
73642;SDS011;61938;48.652;9.292;2023-08-30T14:03:35;7.65;;;3.30;;
73642;SDS011;61938;48.652;9.292;2023-08-30T14:06:01;3.88;;;2.78;;
73642;SDS011;61938;48.652;9.292;2023-08-30T14:08:26;5.22;;;2.90;;
73642;SDS011;61938;48.652;9.292;2023-08-30T14:10:52;6.32;;;2.80;;
73642;SDS011;61938;48.652;9.292;2023-08-30T14:13:19;4.40;;;3.17;;
73642;SDS011;61938;48.652;9.292;2023-08-30T14:15:44;4.03;;;2.90;;
73642;SDS011;61938;48.652;9.292;2023-08-30T14:18:10;5.78;;;3.00;;
73642;SDS011;61938;48.652;9.292;2023-08-30T14:20:36;3.05;;;2.50;;
73642;SDS011;61938;48.652;9.292;2023-08-30T14:23:02;4.22;;;2.80;;
73642;SDS011;61938;48.652;9.292;2023-08-30T14:25:28;3.85;;;2.40;;
73642;SDS011;61938;48.652;9.292;2023-08-30T14:27:54;6.38;;;3.15;;
73642;SDS011;61938;48.652;9.292;2023-08-30T14:30:20;3.45;;;2.80;;
73642;SDS011;61938;48.652;9.292;2023-08-30T14:32:46;5.20;;;3.80;;
73642;SDS011;61938;48.652;9.292;2023-08-30T14:35:12;4.47;;;2.60;;
73642;SDS011;61938;48.652;9.292;2023-08-30T14:37:37;3.83;;;2.55;;
73642;SDS011;61938;48.652;9.292;2023-08-30T14:40:04;6.88;;;3.08;;
73642;SDS011;61938;48.652;9.292;2023-08-30T14:42:30;3.72;;;2.60;;